Niles, Illinois
Current Conditions -  °F | °C
As of 12:51 PM on Monday 20 Oct 2014 (Local Time) from KORD Reporting Station
Few Clouds Few Clouds  
Wind Chill: 63°   Ceiling: Unl
Heat Index: 63°   Visibility: 10mi
Dew Point: 46°   Wind: 7mph
Humidity: 54%   Direction: NA
Pressure: 29.84"   Gusts: NA
Location:  42.02°N, 87.8°W
Report Text: KORD 201751Z VRB06KT 10SM FEW035 FEW060 17/08 A2984 RMK AO2 SLP103 T01720078 10172 20078 58002 $
Loading
Personal Weather Stations






























Interactive Weather Map
Tropical Storm Tracking
New forecast layout! Learn more

10-Day Weather Forecast

Advertisements
Track Severe Weather on mobile